Latest Weather Observations for Dartmoor

IDV60801

Issued at 3:32 pm EDT Monday 27 March 2017 (issued every 30 minutes, with the page automatically refreshed every 10 minutes)

About weather observations | Map of weather stations | Latest weather observations for VIC | Other Formats
Station Details ID: 090194 Name: DARTMOOR Lat: -37.92 Lon: 141.26 Height: 51.0 m
Data from the previous 72 hours. | See also: Recent months at Dartmoor
Date/Time
EDT
Temp
°C
App
Temp
°C
Dew
Point
°C
Rel
Hum
%
Delta-T
°C
Wind Press
QNH
hPa
Press
MSL
hPa
Rain since
9am
mm
Dir  Spd
km/h
Gust
km/h
Spd
kts
Gust
kts
27/03:30pm 19.4 15.5 10.9 58 4.6 W 22 37 12 20 1010.8 1010.7 1.2
27/03:00pm 19.5 16.7 13.2 67 3.6 W 20 35 11 19 1010.5 1010.4 1.2
27/02:30pm 16.4 13.9 14.1 86 1.3 W 20 32 11 17 1011.1 1011.0 1.2
27/02:00pm 18.6 15.6 13.7 73 2.8 NW 22 33 12 18 1010.6 1010.5 0.8
27/01:30pm 17.2 14.2 13.7 80 2.0 NW 22 32 12 17 1010.8 1010.7 0.8
27/01:00pm 16.5 14.6 14.2 86 1.3 NW 17 28 9 15 1010.7 1010.6 0.8
27/12:30pm 15.5 14.7 14.0 91 0.8 NW 11 19 6 10 1010.4 1010.3 0.8
27/12:00pm 15.4 14.8 13.6 89 1.0 NW 9 15 5 8 1010.5 1010.4 0.6
27/11:30am 15.7 13.8 13.0 84 1.5 WNW 15 26 8 14 1010.9 1010.8 0.0
27/11:00am 16.2 13.5 12.9 81 1.8 W 19 33 10 18 1010.4 1010.3 0.0
27/10:30am 18.4 14.7 12.6 69 3.2 W 24 41 13 22 1008.9 1008.8 0.0
27/10:00am 19.1 15.5 14.1 73 2.9 W 26 44 14 24 1007.5 1007.5 0.0
27/09:30am 19.8 18.5 15.9 78 2.3 WNW 17 30 9 16 1006.5 1006.5 0.0
27/09:00am 20.8 19.6 17.0 79 2.3 WNW 19 28 10 15 1005.8 1005.7 0.0
27/08:30am 20.8 19.4 17.0 79 2.3 WNW 20 33 11 18 1005.0 1004.9 0.0
27/08:00am 22.4 19.5 16.2 68 3.8 W 26 41 14 22 1003.4 1003.3 0.0
27/07:59am 22.7 19.9 16.3 67 3.9 W 26 41 14 22 1003.4 1003.3 0.0
27/07:32am 27.7 23.4 13.3 41 8.5 NNW 28 46 15 25 1001.8 1001.7 0.0
27/07:30am 27.8 24.2 13.0 40 8.7 NNW 24 46 13 25 1001.8 1001.7 0.0
27/07:00am 27.4 23.9 13.4 42 8.3 N 24 37 13 20 1001.4 1001.3 0.0
27/06:35am 27.4 23.0 13.0 41 8.5 N 28 46 15 25 1000.5 1000.4 0.0
27/06:30am 27.3 23.7 12.9 41 8.4 N 24 46 13 25 1000.5 1000.4 0.0
27/06:21am 27.4 23.0 13.0 41 8.5 N 28 46 15 25 1000.2 1000.1 0.0
27/06:00am 27.5 22.1 12.7 40 8.7 NNE 33 52 18 28 999.5 999.4 0.0
27/05:44am 27.4 22.1 12.6 40 8.6 NNE 32 50 17 27 999.9 999.8 0.0
27/05:30am 27.5 22.3 12.7 40 8.7 NNE 32 46 17 25 1000.1 1000.0 0.0
27/05:13am 27.3 22.9 12.9 41 8.4 NNE 28 50 15 27 1000.4 1000.3 0.0
27/05:00am 27.3 23.7 12.9 41 8.5 NNE 24 41 13 22 1000.6 1000.5 0.0
27/04:30am 27.1 23.9 13.1 42 8.2 NNE 22 39 12 21 1001.3 1001.2 0.0
27/04:00am 26.9 23.4 13.3 43 8.0 NNE 24 35 13 19 1001.6 1001.5 0.0
27/03:30am 26.4 22.8 13.2 44 7.7 NNE 24 37 13 20 1002.3 1002.2 0.0
27/03:00am 26.1 22.9 13.2 44 7.6 NNE 22 39 12 21 1003.0 1002.9 0.0
27/02:30am 25.8 23.0 13.3 46 7.3 NNE 20 32 11 17 1003.6 1003.5 0.0
27/02:00am 25.8 22.4 13.6 47 7.2 NNE 24 32 13 17 1004.5 1004.4 0.0
27/01:30am 25.2 22.7 13.4 48 6.9 NNE 19 28 10 15 1004.7 1004.6 0.0
27/01:00am 24.8 22.6 13.4 49 6.7 NNE 17 32 9 17 1005.4 1005.3 0.0
27/12:30am 25.1 22.5 13.3 48 6.9 NNE 19 28 10 15 1005.9 1005.8 0.0
27/12:00am 25.4 22.4 13.6 48 7.0 NNE 22 35 12 19 1006.5 1006.5 0.0
 
Date/Time
EDT
Temp
°C
App
Temp
°C
Dew
Point
°C
Rel
Hum
%
Delta-T
°C
Wind Press
QNH
hPa
Press
MSL
hPa
Rain since
9am
mm
Dir  Spd
km/h
Gust
km/h
Spd
kts
Gust
kts
26/11:30pm 24.9 22.4 14.1 51 6.4 NNE 20 30 11 16 1006.7 1006.7 0.0
26/11:00pm 24.2 22.7 14.3 54 5.9 NNE 15 26 8 14 1007.4 1007.4 0.0
26/10:30pm 24.1 23.4 14.2 54 5.8 NNE 11 15 6 8 1008.5 1008.4 0.0
26/10:00pm 24.5 23.7 14.0 52 6.2 NNE 11 17 6 9 1008.8 1008.7 0.0
26/09:30pm 24.8 24.4 14.0 51 6.4 NNE 9 17 5 9 1009.0 1008.9 0.0
26/09:00pm 24.8 24.5 14.3 52 6.2 N 9 15 5 8 1009.1 1009.0 0.0
26/08:30pm 24.9 24.6 14.4 52 6.2 N 9 11 5 6 1008.8 1008.7 0.0
26/08:00pm 24.9 25.0 14.4 52 6.3 NE 7 11 4 6 1008.5 1008.4 0.0
26/07:30pm 25.6 25.8 14.1 49 6.8 NE 6 9 3 5 1008.7 1008.6 0.0
26/07:00pm 26.0 25.6 14.1 47 7.1 N 9 15 5 8 1009.0 1008.9 0.0
26/06:30pm 26.6 25.9 14.4 47 7.3 N 11 17 6 9 1009.1 1009.0 0.0
26/06:00pm 28.0 27.3 14.3 43 8.3 NNE 11 17 6 9 1009.3 1009.2 0.0
26/05:30pm 27.7 26.1 14.0 43 8.2 N 15 20 8 11 1009.5 1009.4 0.0
26/05:00pm 28.1 27.2 13.6 41 8.6 N 11 19 6 10 1009.9 1009.8 0.0
26/04:30pm 28.1 27.4 14.3 42 8.3 NNE 11 19 6 10 1010.2 1010.1 0.0
26/04:00pm 27.7 27.9 14.3 43 8.1 NNE 6 13 3 7 1010.6 1010.5 0.0
26/03:30pm 27.1 27.8 15.5 49 7.1 N 6 11 3 6 1011.3 1011.2 0.0
26/03:00pm 26.1 26.1 15.2 51 6.6 N 9 15 5 8 1011.9 1011.8 0.0
26/02:30pm 25.8 25.9 15.5 53 6.3 NE 9 17 5 9 1012.3 1012.2 0.0
26/02:00pm 24.2 24.5 15.1 56 5.5 NE 7 11 4 6 1012.7 1012.6 0.0
26/01:30pm 23.3 23.5 14.6 58 5.2 NE 7 15 4 8 1013.2 1013.1 0.0
26/01:00pm 23.8 24.6 15.8 61 4.8 ENE 6 13 3 7 1013.7 1013.6 0.0
26/12:30pm 23.0 23.7 15.6 63 4.5 E 6 13 3 7 1014.1 1014.0 0.0
26/12:00pm 21.5 21.3 14.6 65 4.1 ENE 9 13 5 7 1014.0 1013.9 0.0
26/11:30am 22.1 21.6 15.0 64 4.2 ENE 11 17 6 9 1014.2 1014.1 0.0
26/11:00am 20.5 19.9 14.6 69 3.5 ESE 11 19 6 10 1014.7 1014.6 0.0
26/10:30am 19.7 18.7 14.7 73 2.9 ESE 13 17 7 9 1014.7 1014.6 0.0
26/10:00am 18.8 17.8 14.5 76 2.5 SE 13 19 7 10 1014.7 1014.6 0.0
26/09:30am 17.8 17.8 14.1 79 2.1 SE 7 9 4 5 1015.5 1015.4 0.0
26/09:00am 17.9 18.0 14.4 80 2.0 ESE 7 9 4 5 1015.3 1015.2 0.0
26/08:30am 17.0 18.0 14.3 84 1.5 SE 2 6 1 3 1015.1 1015.0 0.0
26/08:00am 16.7 17.0 14.5 87 1.3 SSE 6 7 3 4 1014.8 1014.7 0.0
26/07:30am 16.6 16.8 14.2 86 1.4 SE 6 7 3 4 1014.3 1014.2 0.0
26/07:00am 16.7 16.9 14.3 86 1.4 SE 6 9 3 5 1013.9 1013.8 0.0
26/06:30am 16.9 17.2 14.4 85 1.4 S 6 9 3 5 1014.2 1014.1 0.0
26/06:00am 17.0 17.0 14.3 84 1.5 SSE 7 11 4 6 1013.8 1013.7 0.0
26/05:30am 17.1 17.4 14.4 84 1.6 S 6 6 3 3 1014.0 1013.9 0.0
26/05:00am 17.2 18.0 14.7 85 1.4 SSE 4 6 2 3 1013.7 1013.6 0.0
26/04:30am 17.2 17.6 14.8 86 1.4 S 6 7 3 4 1013.7 1013.6 0.0
26/04:00am 17.3 18.1 14.9 86 1.4 ESE 4 6 2 3 1013.9 1013.8 0.0
26/03:30am 17.4 18.3 15.0 86 1.4 ESE 4 4 2 2 1014.2 1014.1 0.0
26/03:00am 17.4 18.6 14.9 85 1.5 ESE 2 4 1 2 1014.5 1014.4 0.0
26/02:30am 17.4 17.8 14.7 84 1.6 S 6 7 3 4 1014.4 1014.3 0.0
26/02:00am 17.5 18.3 14.8 84 1.6 SSE 4 4 2 2 1014.7 1014.6 0.0
26/01:30am 17.5 18.3 14.8 84 1.6 SSE 4 6 2 3 1014.8 1014.7 0.0
26/01:00am 17.5 18.4 15.1 86 1.4 SSE 4 6 2 3 1014.9 1014.8 0.0
26/12:30am 17.5 18.8 15.1 86 1.4 SSE 2 4 1 2 1015.1 1015.0 0.0
26/12:00am 17.5 18.1 15.3 87 1.3 SSE 6 7 3 4 1015.1 1015.0 0.0
 
Date/Time
EDT
Temp
°C
App
Temp
°C
Dew
Point
°C
Rel
Hum
%
Delta-T
°C
Wind Press
QNH
hPa
Press
MSL
hPa
Rain since
9am
mm
Dir  Spd
km/h
Gust
km/h
Spd
kts
Gust
kts
25/11:30pm 17.4 18.5 15.6 89 1.1 SSE 4 6 2 3 1015.5 1015.4 0.0
25/11:00pm 17.5 19.3 15.5 88 1.2 CALM 0 0 0 0 1015.5 1015.4 0.0
25/10:30pm 17.5 18.6 15.5 88 1.2 SE 4 6 2 3 1015.4 1015.3 0.0
25/10:00pm 17.4 18.3 15.2 87 1.3 SSW 4 6 2 3 1015.1 1015.0 0.0
25/09:30pm 17.6 17.9 14.9 84 1.6 S 7 9 4 5 1014.8 1014.7 0.0
25/09:00pm 17.8 18.6 14.9 83 1.7 SSW 4 6 2 3 1014.7 1014.6 0.0
25/08:30pm 17.8 18.2 14.7 82 1.8 SW 6 9 3 5 1014.5 1014.4 0.0
25/08:00pm 18.0 17.6 15.1 83 1.7 SSW 11 17 6 9 1014.2 1014.1 0.0
25/07:30pm 18.2 18.2 15.1 82 1.8 SSW 9 13 5 7 1013.8 1013.7 0.0
25/07:00pm 18.4 18.1 15.5 83 1.7 SSW 11 17 6 9 1013.8 1013.7 0.0
25/06:30pm 18.6 18.0 15.7 83 1.7 SSW 13 19 7 10 1013.5 1013.4 0.0
25/06:00pm 18.8 17.5 15.7 82 1.8 SSW 17 22 9 12 1013.3 1013.2 0.0
25/05:30pm 19.3 18.5 16.2 82 1.9 SSW 15 20 8 11 1012.9 1012.8 0.0
25/05:00pm 19.7 19.0 16.3 81 2.0 SSW 15 19 8 10 1012.8 1012.7 0.0
25/04:30pm 19.4 18.4 16.6 84 1.7 SSW 17 24 9 13 1012.9 1012.8 0.0
25/04:00pm 20.1 19.3 17.1 83 1.8 SSW 17 24 9 13 1012.6 1012.5 0.0
25/03:30pm 21.0 19.9 17.2 79 2.3 SW 19 26 10 14 1012.5 1012.4 0.0
25/03:00pm 22.7 21.5 17.6 73 3.2 SW 20 28 11 15 1012.3 1012.2 0.0
25/02:30pm 24.4 23.9 17.9 67 4.1 SW 17 26 9 14 1012.3 1012.2 0.0
25/02:00pm 25.3 24.9 17.2 61 5.0 SW 15 24 8 13 1012.0 1011.9 0.0
25/01:30pm 26.4 26.5 17.5 58 5.6 SW 13 20 7 11 1012.0 1011.9 0.0
25/01:00pm 26.4 26.7 16.9 56 5.9 SW 11 19 6 10 1012.2 1012.1 0.0
25/12:30pm 25.7 26.2 17.4 60 5.2 SSW 11 19 6 10 1012.4 1012.3 0.0
25/12:00pm 25.1 25.4 16.0 57 5.6 SW 9 15 5 8 1012.5 1012.4 0.0
25/11:30am 24.5 25.1 15.7 58 5.3 WNW 7 11 4 6 1012.7 1012.6 0.0
25/11:00am 23.6 23.4 14.6 57 5.3 W 9 15 5 8 1012.7 1012.6 0.0
25/10:30am 23.4 23.4 15.2 60 4.9 WNW 9 17 5 9 1012.6 1012.5 0.0
25/10:00am 22.2 22.9 15.5 66 4.0 WNW 6 9 3 5 1012.7 1012.6 0.0
25/09:30am 20.3 22.3 16.1 77 2.5 CALM 0 2 0 1 1012.5 1012.4 0.0
25/09:00am 18.3 20.0 15.2 82 1.8 CALM 0 0 0 0 1012.1 1012.0 0.0
25/08:30am 17.3 17.8 15.1 87 1.3 SSW 6 9 3 5 1012.1 1012.0 0.0
25/08:00am 16.6 17.9 14.1 85 1.4 CALM 0 0 0 0 1011.5 1011.4 0.0
25/07:30am 16.9 17.9 14.2 84 1.5 NNW 2 4 1 2 1011.0 1010.9 0.0
25/07:00am 17.0 17.2 14.3 84 1.5 SW 6 9 3 5 1010.9 1010.8 0.0
25/06:30am 18.9 19.3 13.7 72 3.0 N 4 7 2 4 1010.5 1010.4 0.0
25/06:00am 19.7 19.9 14.1 70 3.2 NNE 6 7 3 4 1010.5 1010.4 0.0
25/05:30am 20.1 20.3 14.2 69 3.4 N 6 7 3 4 1010.5 1010.4 0.0
25/05:00am 20.5 20.8 14.4 68 3.6 N 6 6 3 3 1010.5 1010.4 0.0
25/04:30am 20.9 21.1 14.3 66 3.9 NNE 6 9 3 5 1010.5 1010.4 0.0
25/04:00am 20.9 21.1 14.3 66 3.9 NNW 6 9 3 5 1010.6 1010.5 0.0
25/03:30am 19.4 20.4 15.3 77 2.4 NNW 4 6 2 3 1011.0 1010.9 0.0
25/03:00am 19.7 20.6 15.1 75 2.7 NE 4 6 2 3 1010.9 1010.8 0.0
25/02:30am 20.3 20.7 14.7 70 3.3 NE 6 11 3 6 1011.0 1010.9 0.0
25/02:00am 20.7 20.5 14.8 69 3.5 NE 9 13 5 7 1011.2 1011.1 0.0
25/01:30am 20.3 20.3 15.3 73 3.0 NE 9 13 5 7 1011.5 1011.4 0.0
25/01:00am 20.5 20.7 15.7 74 2.9 NNE 9 17 5 9 1012.0 1011.9 0.0
25/12:30am 19.8 20.6 16.3 80 2.1 ENE 7 9 4 5 1012.4 1012.3 0.0
25/12:00am 19.5 19.7 16.7 84 1.7 ENE 11 17 6 9 1012.5 1012.4 0.0
 
Date/Time
EDT
Temp
°C
App
Temp
°C
Dew
Point
°C
Rel
Hum
%
Delta-T
°C
Wind Press
QNH
hPa
Press
MSL
hPa
Rain since
9am
mm
Dir  Spd
km/h
Gust
km/h
Spd
kts
Gust
kts
24/11:30pm 19.0 19.7 17.0 88 1.2 ENE 9 13 5 7 1012.9 1012.8 0.0
24/11:00pm 19.0 20.6 16.8 87 1.3 ENE 4 6 2 3 1013.6 1013.5 0.0
24/10:30pm 19.2 20.2 16.8 86 1.5 E 7 9 4 5 1014.1 1014.0 0.0
24/10:00pm 19.3 20.7 16.5 84 1.7 ESE 4 4 2 2 1014.6 1014.5 0.0
24/09:30pm 19.7 20.7 16.3 81 2.0 E 6 9 3 5 1014.0 1013.9 0.0
24/09:00pm 19.9 21.0 16.5 81 2.1 E 6 7 3 4 1014.3 1014.2 0.0
24/08:30pm 20.4 21.3 16.6 79 2.3 ESE 7 9 4 5 1014.0 1013.9 0.0
24/08:00pm 21.3 21.9 16.9 76 2.7 ESE 9 11 5 6 1014.0 1013.9 0.0
24/07:30pm 21.9 23.2 17.1 74 2.9 ESE 6 9 3 5 1014.2 1014.1 0.0
24/07:00pm 22.9 23.7 17.4 71 3.4 SE 9 11 5 6 1014.6 1014.5 0.0
24/06:30pm 23.9 24.4 17.4 67 4.0 SE 11 15 6 8 1014.5 1014.4 0.0
24/06:00pm 24.6 25.0 17.3 64 4.5 SE 11 15 6 8 1014.8 1014.7 0.0
24/05:30pm 25.2 26.2 16.9 60 5.1 SE 7 9 4 5 1014.4 1014.3 0.0
24/05:00pm 25.6 27.2 15.9 55 5.9 ESE 2 6 1 3 1014.5 1014.4 0.0
24/04:30pm 25.4 26.3 16.0 56 5.7 SSW 6 9 3 5 1014.5 1014.4 0.0
24/04:00pm 25.5 26.5 16.9 59 5.3 SSE 7 13 4 7 1014.7 1014.6 0.0

Other Formats:

Comma delimited format used in spreadsheet applications
http://www.bom.gov.au/fwo/IDV60801/IDV60801.95822.axf

JavaScript Object Notation format (JSON) in row-major order
http://www.bom.gov.au/fwo/IDV60801/IDV60801.95822.json